KIDA

Idaho Falls Regional Airport

Idaho Falls, Idaho, USA
METAR KIDA 181553Z 23004KT 10SM OVC036 M04/M06 A3020 RMK AO2 SLP271 T10391056
Observed Flight Rules
Dec-18 @ 15:53 UTC (54 minutes ago) Visual Flight Rules
Wind Visibility Clouds
230° at 4 knots 10 miles
  • Overcast at 3,600' AGL
Temperatures Readings
Current -4°C / 25°F
Dewpoint -6°C / 21°F
Humidity 86%
Altimeter 30.2" Hg
Pressure 1027.1 hPa
Elevation 1453
METAR KIDA 181553Z 23004KT 10SM OVC036 M04/M06 A3020 RMK AO2 SLP271 T10391056
Observed Flight Rules
Dec-18 @ 15:53 UTC
(54 minutes ago)
VFR
Wind Visibility
230° at 4 knots 10 miles
Clouds
  • Overcast at 3,600' AGL
Temperature Dewpoint
-4°C / 25°F -6°C / 21°F
Humidity Altimeter Pressure
86% 30.2" Hg 1027.1 hPa